Time;durP1;ratioP1;P1;durP2;ratioP2;P2;SDS_P1;SDS_P2;PMS_P1;PMS_P2;Temp;Humidity;BMP_temperature;BMP_pressure;BME280_temperature;BME280_humidity;BME280_pressure;Samples;Min_cycle;Max_cycle;Signal;HPM_P1;HPM_P2
2022/11/23 00:01:32;;;;;;;;;13.00;7.67;;;;;9.09;69.24;99658.44;5099796;27;45348;-53
2022/11/23 00:04:01;;;;;;;;;7.67;5.67;;;;;9.00;69.14;99654.94;5099778;27;45412;-53
2022/11/23 00:06:27;;;;;;;;;6.00;5.33;;;;;8.96;69.96;99656.25;5099879;27;45315;-53
2022/11/23 00:08:53;;;;;;;;;6.33;4.67;;;;;8.93;69.90;99647.78;5100534;27;45329;-53
2022/11/23 00:11:21;;;;;;;;;5.67;2.00;;;;;8.90;69.73;99651.63;5099619;27;45411;-52
2022/11/23 00:13:47;;;;;;;;;5.00;3.67;;;;;8.85;70.81;99642.47;5099434;27;45448;-53
2022/11/23 00:16:23;;;;;;;;;8.67;5.00;;;;;8.82;70.21;99637.50;5099706;27;45472;-52
2022/11/23 00:18:53;;;;;;;;;11.25;9.75;;;;;8.79;70.93;99636.00;5099781;27;45761;-54
2022/11/23 00:21:20;;;;;;;;;8.33;6.00;;;;;8.75;70.44;99626.72;5098151;27;45422;-53
2022/11/23 00:23:45;;;;;;;;;8.33;6.00;;;;;8.74;71.09;99633.00;5098172;27;45314;-53
2022/11/23 00:26:12;;;;;;;;;13.33;6.67;;;;;8.71;71.10;99628.84;5099397;27;45277;-53
2022/11/23 00:28:39;;;;;;;;;10.00;5.00;;;;;8.72;71.17;99642.94;5099747;27;45240;-51
2022/11/23 00:31:15;;;;;;;;;8.00;5.00;;;;;8.63;71.36;99639.44;5099023;27;46146;-48
2022/11/23 00:33:41;;;;;;;;;5.00;5.00;;;;;8.62;71.35;99637.78;5099148;27;45408;-51
2022/11/23 00:36:11;;;;;;;;;5.33;5.33;;;;;8.63;71.49;99636.78;5099076;27;45410;-52
2022/11/23 00:38:37;;;;;;;;;7.67;6.33;;;;;8.62;70.66;99635.13;5099505;27;45282;-50
2022/11/23 00:41:08;;;;;;;;;9.67;5.67;;;;;8.61;71.33;99630.00;5098968;27;46076;-50
2022/11/23 00:43:33;;;;;;;;;9.00;4.33;;;;;8.61;71.39;99636.13;5099150;27;45360;-51
2022/11/23 00:46:04;;;;;;;;;5.00;1.33;;;;;8.58;71.28;99632.97;5099007;27;45242;-52
2022/11/23 00:48:30;;;;;;;;;7.33;5.00;;;;;8.53;71.28;99628.16;5099237;27;45576;-53
2022/11/23 00:50:55;;;;;;;;;6.75;6.00;;;;;8.53;71.83;99628.16;5098766;27;46215;-50
2022/11/23 00:53:20;;;;;;;;;8.00;6.00;;;;;8.48;71.43;99617.19;5098955;27;45402;-53
2022/11/23 00:55:53;;;;;;;;;12.33;8.67;;;;;8.49;72.54;99629.44;5099170;27;45337;-53
2022/11/23 00:58:19;;;;;;;;;3.33;2.67;;;;;8.44;72.50;99616.69;5099274;27;45458;-51
2022/11/23 01:00:45;;;;;;;;;6.00;5.67;;;;;8.47;71.94;99626.16;5098774;27;46041;-54
2022/11/23 01:03:10;;;;;;;;;7.33;4.00;;;;;8.44;72.56;99621.16;5098857;27;45250;-52
2022/11/23 01:05:36;;;;;;;;;5.67;2.67;;;;;8.42;72.65;99626.59;5098832;27;45464;-50
2022/11/23 01:08:02;;;;;;;;;5.33;5.33;;;;;8.46;72.38;99624.47;5099143;27;45390;-50
2022/11/23 01:10:29;;;;;;;;;9.00;4.33;;;;;8.33;71.56;99600.22;5098446;27;47714;-53
2022/11/23 01:12:54;;;;;;;;;9.00;2.00;;;;;8.37;72.81;99610.34;5098499;27;45219;-51
2022/11/23 01:15:20;;;;;;;;;4.00;2.00;;;;;8.39;71.25;99619.00;5098723;27;45431;-51
2022/11/23 01:17:45;;;;;;;;;8.33;5.67;;;;;8.40;72.95;99625.13;5099141;27;45281;-53
2022/11/23 01:20:10;;;;;;;;;8.00;5.67;;;;;8.37;72.72;99620.97;5098222;27;46155;-52
2022/11/23 01:22:36;;;;;;;;;13.00;9.00;;;;;8.35;72.84;99620.28;5098614;27;45371;-53
2022/11/23 01:25:01;;;;;;;;;7.33;6.00;;;;;8.34;73.44;99612.47;5098875;27;45500;-52
2022/11/23 01:27:26;;;;;;;;;5.00;0.00;;;;;8.33;72.87;99610.81;5099048;27;45324;-52
2022/11/23 01:29:52;;;;;;;;;11.00;5.33;;;;;8.29;72.98;99606.81;5098205;27;50686;-52
2022/11/23 01:32:17;;;;;;;;;9.33;7.33;;;;;8.24;73.71;99608.13;5097951;27;45483;-56
2022/11/23 01:34:42;;;;;;;;;8.33;6.67;;;;;8.18;73.67;99592.88;5098725;27;45359;-52
2022/11/23 01:37:07;;;;;;;;;8.67;8.67;;;;;8.16;73.73;99594.00;5098577;27;45373;-52
2022/11/23 01:39:33;;;;;;;;;8.00;5.00;;;;;8.15;73.61;99589.72;5096966;27;46224;-52
2022/11/23 01:41:58;;;;;;;;;9.50;6.00;;;;;8.11;73.91;99581.25;5098270;27;45394;-53
2022/11/23 01:44:31;;;;;;;;;8.50;6.00;;;;;8.12;74.63;99584.72;5098150;27;45664;-50
2022/11/23 01:46:59;;;;;;;;;6.00;5.25;;;;;8.11;73.57;99583.06;5098504;27;45330;-54
2022/11/23 01:49:28;;;;;;;;;11.00;5.50;;;;;7.97;73.92;99565.97;5097894;27;46272;-54
2022/11/23 01:51:58;;;;;;;;;8.33;5.00;;;;;8.08;73.83;99578.09;5097737;27;45412;-53
2022/11/23 01:54:29;;;;;;;;;7.33;4.67;;;;;8.01;74.11;99569.97;5097988;27;45372;-52
2022/11/23 01:57:01;;;;;;;;;7.50;5.00;;;;;8.04;74.03;99568.81;5098138;27;45565;-52
2022/11/23 01:59:29;;;;;;;;;12.00;6.00;;;;;8.04;74.31;99574.09;5097779;27;47258;-56
2022/11/23 02:01:54;;;;;;;;;7.25;6.00;;;;;8.02;75.22;99568.16;5097977;27;45361;-53
2022/11/23 02:04:24;;;;;;;;;6.67;6.00;;;;;8.03;74.57;99567.16;5097945;27;45282;-52
2022/11/23 02:06:52;;;;;;;;;9.75;7.00;;;;;7.99;74.50;99569.28;5098018;27;45415;-53
2022/11/23 02:09:18;;;;;;;;;10.25;7.50;;;;;7.97;75.24;99571.28;5097775;27;47064;-52
2022/11/23 02:11:44;;;;;;;;;10.50;9.75;;;;;8.00;74.98;99573.59;5097593;27;45340;-55
2022/11/23 02:14:10;;;;;;;;;13.75;7.25;;;;;7.94;75.17;99558.34;5097815;27;45630;-53
2022/11/23 02:16:37;;;;;;;;;7.50;5.00;;;;;8.00;75.23;99555.03;5098115;27;45276;-53
2022/11/23 02:19:07;;;;;;;;;10.00;6.00;;;;;8.02;75.70;99561.03;5096179;27;45444;-51
2022/11/23 02:21:33;;;;;;;;;6.50;4.75;;;;;8.02;74.86;99568.97;5097520;27;45415;-53
2022/11/23 02:24:06;;;;;;;;;6.00;5.00;;;;;7.92;74.87;99549.72;5097615;27;45184;-51
2022/11/23 02:26:35;;;;;;;;;8.00;6.00;;;;;8.03;74.22;99567.16;5097945;27;45455;-51
2022/11/23 02:29:06;;;;;;;;;9.00;5.00;;;;;8.04;75.09;99561.69;5097545;27;45985;-53
2022/11/23 02:31:31;;;;;;;;;9.50;6.50;;;;;7.99;75.45;99564.81;5097344;27;47219;-52
2022/11/23 02:33:57;;;;;;;;;9.25;7.00;;;;;8.00;76.11;99561.16;5097525;27;45413;-52
2022/11/23 02:36:46;;;;;;;;;6.50;6.50;;;;;8.01;74.79;99556.72;5097687;27;45241;-53
2022/11/23 02:39:26;;;;;;;;;8.75;8.00;;;;;8.03;75.72;99557.38;5097430;27;47195;-51
2022/11/23 02:41:53;;;;;;;;;8.00;5.75;;;;;8.05;75.04;99558.06;5097384;27;45363;-54
2022/11/23 02:44:35;;;;;;;;;9.50;9.50;;;;;8.00;75.20;99545.28;5097324;27;45243;-50
2022/11/23 02:47:01;;;;;;;;;9.00;6.00;;;;;7.99;76.02;99546.28;5101153;27;45371;-53
2022/11/23 02:49:27;;;;;;;;;9.00;7.75;;;;;7.99;76.30;99540.97;5101093;27;45528;-52
2022/11/23 02:51:52;;;;;;;;;12.50;8.00;;;;;7.99;76.49;99540.97;5100654;27;45397;-49
2022/11/23 02:54:18;;;;;;;;;9.00;8.75;;;;;8.01;75.63;99540.84;5100990;27;45436;-52
2022/11/23 02:56:43;;;;;;;;;13.25;7.00;;;;;8.03;76.03;99538.00;5101163;27;45229;-53
2022/11/23 02:59:08;;;;;;;;;13.00;5.50;;;;;8.03;75.64;99530.91;5100692;27;46085;-51
2022/11/23 03:01:34;;;;;;;;;9.75;7.25;;;;;8.07;75.89;99531.41;5100817;27;45240;-52
2022/11/23 03:03:59;;;;;;;;;8.00;6.00;;;;;8.08;75.76;99522.47;5100642;27;45461;-52
2022/11/23 03:06:25;;;;;;;;;8.33;5.33;;;;;8.05;75.94;99520.13;5100797;27;45302;-52
2022/11/23 03:08:50;;;;;;;;;11.33;8.00;;;;;8.06;76.21;99516.53;5100684;27;46039;-52
2022/11/23 03:11:16;;;;;;;;;14.00;7.33;;;;;8.04;74.36;99513.19;5100680;27;45445;-52
2022/11/23 03:13:42;;;;;;;;;4.67;4.67;;;;;8.03;75.87;99511.53;5100872;27;45189;-52
2022/11/23 03:16:07;;;;;;;;;9.50;5.75;;;;;8.04;76.50;99508.72;5100914;27;45334;-50
2022/11/23 03:18:33;;;;;;;;;12.33;7.67;;;;;8.07;75.76;99504.94;5100362;27;45921;-52
2022/11/23 03:21:07;;;;;;;;;4.67;4.67;;;;;8.04;76.79;99492.81;5100603;27;45389;-50
2022/11/23 03:23:33;;;;;;;;;11.50;6.50;;;;;8.05;77.05;99499.81;5100543;27;45418;-52
2022/11/23 03:25:59;;;;;;;;;8.00;6.00;;;;;8.07;77.01;99494.34;5100446;27;45415;-51
2022/11/23 03:28:25;;;;;;;;;7.33;5.00;;;;;8.04;76.81;99489.34;5081943;27;47157;-53
2022/11/23 03:30:51;;;;;;;;;8.00;5.67;;;;;7.93;76.51;99486.03;5100039;27;45322;-52
2022/11/23 03:33:17;;;;;;;;;10.25;6.00;;;;;8.05;77.37;99504.25;5100712;27;45299;-53
2022/11/23 03:35:43;;;;;;;;;11.67;6.67;;;;;8.07;75.62;99507.56;5100910;27;45457;-53
2022/11/23 03:38:08;;;;;;;;;4.33;1.00;;;;;8.05;75.96;99499.81;5099994;27;47190;-50
2022/11/23 03:40:34;;;;;;;;;9.25;7.00;;;;;8.06;76.47;99492.69;5100433;27;45349;-52
2022/11/23 03:42:59;;;;;;;;;15.50;7.25;;;;;8.07;76.55;99489.88;5100422;27;45349;-52
2022/11/23 03:45:24;;;;;;;;;11.67;7.67;;;;;8.09;75.48;99479.09;5100281;27;45345;-52
2022/11/23 03:47:50;;;;;;;;;7.33;5.33;;;;;8.07;76.49;99476.63;5099922;27;46184;-52
2022/11/23 03:50:15;;;;;;;;;13.00;8.75;;;;;8.05;76.53;99478.63;5100076;27;45410;-51
2022/11/23 03:52:41;;;;;;;;;5.00;5.00;;;;;8.05;76.95;99480.41;5100136;27;45421;-52
2022/11/23 03:55:06;;;;;;;;;9.33;5.67;;;;;8.07;75.50;99491.69;5100593;27;45459;-52
2022/11/23 03:57:32;;;;;;;;;7.00;7.00;;;;;8.03;77.58;99477.94;5099940;27;45431;-50
2022/11/23 03:59:57;;;;;;;;;7.75;5.50;;;;;7.98;76.32;99465.19;5100399;27;45337;-49
2022/11/23 04:02:23;;;;;;;;;7.67;5.00;;;;;7.98;77.32;99478.41;5101432;27;45321;-50
2022/11/23 04:04:48;;;;;;;;;9.00;7.00;;;;;7.99;77.78;99479.25;5100767;27;45331;-52
2022/11/23 04:07:14;;;;;;;;;8.50;6.00;;;;;7.97;77.71;99479.41;5099985;27;45362;-53
2022/11/23 04:09:39;;;;;;;;;13.75;8.50;;;;;7.94;78.08;99470.97;5099403;27;45469;-51
2022/11/23 04:12:05;;;;;;;;;13.00;8.25;;;;;7.94;78.36;99470.97;5099749;27;45335;-50
2022/11/23 04:14:30;;;;;;;;;10.50;6.50;;;;;7.94;77.69;99473.59;5099789;27;45240;-52
2022/11/23 04:16:56;;;;;;;;;9.75;9.50;;;;;7.93;76.87;99467.47;5099629;27;46631;-49
2022/11/23 04:19:21;;;;;;;;;11.00;5.00;;;;;7.91;76.73;99465.97;5099364;27;45518;-53
2022/11/23 04:21:47;;;;;;;;;13.50;9.00;;;;;7.91;78.42;99466.78;5099682;27;45378;-51
2022/11/23 04:24:12;;;;;;;;;10.00;5.75;;;;;7.90;78.58;99467.78;5099675;27;45460;-52
2022/11/23 04:26:39;;;;;;;;;12.50;8.25;;;;;7.92;78.15;99462.31;5099523;27;46036;-48
2022/11/23 04:29:04;;;;;;;;;9.00;5.00;;;;;7.93;78.39;99461.38;5099482;27;45401;-52
2022/11/23 04:31:30;;;;;;;;;11.00;10.50;;;;;7.91;80.17;99460.69;5099411;27;45416;-53
2022/11/23 04:33:56;;;;;;;;;11.00;5.75;;;;;7.92;79.54;99452.59;5099695;27;45345;-48
2022/11/23 04:36:21;;;;;;;;;12.00;8.00;;;;;7.95;79.62;99462.84;5099131;27;46252;-52
2022/11/23 04:38:46;;;;;;;;;10.25;7.00;;;;;7.95;79.79;99451.44;5099225;27;45241;-52
2022/11/23 04:41:12;;;;;;;;;12.75;5.00;;;;;7.95;79.28;99454.06;5098762;27;45370;-51
2022/11/23 04:43:37;;;;;;;;;13.25;6.50;;;;;7.85;79.88;99429.56;5099396;27;45504;-50
2022/11/23 04:46:02;;;;;;;;;16.75;9.25;;;;;7.94;81.06;99433.88;5098678;27;45422;-53
2022/11/23 04:48:28;;;;;;;;;14.75;13.00;;;;;7.99;79.60;99447.47;5099042;27;45481;-52
2022/11/23 04:50:53;;;;;;;;;17.25;10.25;;;;;7.99;79.00;99440.34;5099056;27;45358;-52
2022/11/23 04:53:19;;;;;;;;;12.00;8.00;;;;;8.01;79.89;99442.84;5099281;27;45351;-52
2022/11/23 04:55:46;;;;;;;;;14.00;9.00;;;;;8.02;80.12;99438.38;5098853;27;45509;-52
2022/11/23 04:58:11;;;;;;;;;11.75;6.00;;;;;7.99;79.87;99428.94;5099140;27;45288;-52
2022/11/23 05:00:36;;;;;;;;;9.75;6.00;;;;;8.02;80.10;99431.25;5098982;27;45330;-55
2022/11/23 05:03:02;;;;;;;;;10.25;8.50;;;;;7.94;80.92;99413.53;5099367;27;45253;-52
2022/11/23 05:05:27;;;;;;;;;21.25;9.50;;;;;7.98;81.54;99425.44;5097291;27;47068;-53
2022/11/23 05:07:52;;;;;;;;;10.50;5.00;;;;;7.98;80.16;99430.75;5097742;27;45417;-53
2022/11/23 05:10:18;;;;;;;;;4.50;4.50;;;;;7.99;80.43;99426.28;5099075;27;45371;-53
2022/11/23 05:12:43;;;;;;;;;7.00;7.00;;;;;7.98;79.99;99421.97;5099031;27;45219;-52
2022/11/23 05:15:12;;;;;;;;;9.00;7.50;;;;;7.96;79.40;99434.53;5098830;27;47508;-52
2022/11/23 05:17:38;;;;;;;;;12.25;8.75;;;;;7.92;81.54;99430.56;5098999;27;45441;-54
2022/11/23 05:20:03;;;;;;;;;8.00;5.00;;;;;7.89;79.73;99421.13;5098724;27;45279;-51
2022/11/23 05:22:29;;;;;;;;;11.00;6.75;;;;;7.90;81.63;99422.78;5098720;27;45600;-52
2022/11/23 05:24:54;;;;;;;;;9.00;5.75;;;;;7.88;81.78;99416.84;5097869;27;45389;-55
2022/11/23 05:27:20;;;;;;;;;11.25;8.00;;;;;7.90;81.20;99430.72;5098304;27;45429;-50
2022/11/23 05:29:45;;;;;;;;;10.25;8.50;;;;;7.90;81.35;99428.06;5098543;27;45316;-53
2022/11/23 05:32:10;;;;;;;;;8.75;7.25;;;;;7.92;82.24;99423.47;5098502;27;45541;-49
2022/11/23 05:34:36;;;;;;;;;8.25;8.00;;;;;7.94;81.51;99425.94;5098165;27;46267;-52
2022/11/23 05:37:01;;;;;;;;;17.75;11.25;;;;;7.95;81.69;99417.81;5098020;27;45360;-53
2022/11/23 05:39:26;;;;;;;;;13.50;10.25;;;;;7.97;81.25;99422.97;5098567;27;45404;-52
2022/11/23 05:41:52;;;;;;;;;14.25;8.00;;;;;8.00;81.68;99430.56;5098507;27;45489;-52
2022/11/23 05:44:17;;;;;;;;;7.50;6.50;;;;;8.00;81.58;99422.63;5098114;27;45406;-52
2022/11/23 05:46:42;;;;;;;;;14.75;10.25;;;;;8.00;81.35;99417.34;5096658;27;45421;-52
2022/11/23 05:49:08;;;;;;;;;24.50;23.00;;;;;8.02;81.84;99417.19;5096922;27;45421;-50
2022/11/23 05:51:34;;;;;;;;;26.00;23.75;;;;;8.09;82.19;99421.69;5096878;27;45250;-52
2022/11/23 05:54:00;;;;;;;;;25.75;20.25;;;;;8.13;81.17;99415.06;5098193;27;45905;-53
2022/11/23 05:56:25;;;;;;;;;28.75;23.75;;;;;8.14;81.18;99411.41;5097852;27;45284;-49
2022/11/23 05:58:51;;;;;;;;;22.25;19.50;;;;;8.20;80.98;99408.09;5096753;27;45259;-53
2022/11/23 06:01:16;;;;;;;;;9.25;6.50;;;;;8.23;80.58;99409.59;5098389;27;45502;-52
2022/11/23 06:03:41;;;;;;;;;16.00;9.00;;;;;8.23;81.66;99402.47;5097877;27;46164;-52
2022/11/23 06:06:07;;;;;;;;;12.00;10.25;;;;;8.24;81.36;99408.59;5097909;27;45316;-57
2022/11/23 06:08:32;;;;;;;;;12.75;10.00;;;;;8.30;82.16;99404.47;5097788;27;45375;-53
2022/11/23 06:11:00;;;;;;;;;13.00;8.75;;;;;8.23;81.30;99393.72;5098159;27;45438;-54
2022/11/23 06:13:25;;;;;;;;;8.33;5.00;;;;;8.36;81.33;99399.34;5097635;27;45325;-49
2022/11/23 06:15:51;;;;;;;;;9.00;9.00;;;;;8.40;81.08;99399.88;5097430;27;45378;-51
2022/11/23 06:18:16;;;;;;;;;14.00;9.50;;;;;8.42;80.89;99404.00;5097999;27;45326;-52
2022/11/23 06:20:41;;;;;;;;;8.50;6.75;;;;;8.46;81.57;99401.84;5095355;27;45373;-49
2022/11/23 06:23:07;;;;;;;;;12.75;9.50;;;;;8.48;81.42;99400.69;5098040;27;45247;-53
2022/11/23 06:25:32;;;;;;;;;6.67;5.33;;;;;8.50;80.66;99406.66;5097419;27;45363;-52
2022/11/23 06:27:59;;;;;;;;;9.67;8.00;;;;;8.51;81.16;99399.53;5097719;27;45611;-51
2022/11/23 06:30:26;;;;;;;;;4.00;4.00;;;;;8.52;81.49;99390.59;5097935;27;45251;-53
2022/11/23 06:32:52;;;;;;;;;13.67;6.33;;;;;8.47;80.94;99388.44;5097142;27;46196;-53
2022/11/23 06:35:17;;;;;;;;;7.67;5.00;;;;;8.54;80.57;99385.13;5097339;27;45287;-51
2022/11/23 06:37:43;;;;;;;;;5.33;5.00;;;;;8.49;80.35;99369.72;5097297;27;45479;-49
2022/11/23 06:40:10;;;;;;;;;6.33;4.33;;;;;8.56;80.71;99381.31;5097715;27;45344;-51
2022/11/23 06:42:36;;;;;;;;;6.00;6.00;;;;;8.59;80.17;99375.66;5097360;27;47199;-50
2022/11/23 06:45:01;;;;;;;;;5.33;5.33;;;;;8.59;80.90;99375.66;5097175;27;45568;-52
2022/11/23 06:47:27;;;;;;;;;7.33;5.00;;;;;8.57;80.00;99372.38;5097698;27;45524;-52
2022/11/23 06:49:53;;;;;;;;;5.33;4.00;;;;;8.58;81.17;99365.25;5097620;27;45282;-52
2022/11/23 06:52:18;;;;;;;;;8.33;6.00;;;;;8.59;81.04;99354.47;5096919;27;46060;-49
2022/11/23 06:54:45;;;;;;;;;9.67;7.67;;;;;8.61;80.36;99357.78;5097328;27;45495;-53
2022/11/23 06:57:10;;;;;;;;;6.33;5.00;;;;;8.58;80.63;99352.81;5097315;27;45256;-51
2022/11/23 06:59:35;;;;;;;;;6.00;3.67;;;;;8.57;80.74;99351.16;5096063;27;45281;-50
2022/11/23 07:02:01;;;;;;;;;6.00;5.33;;;;;8.60;79.80;99344.72;5097091;27;46252;-51
2022/11/23 07:04:26;;;;;;;;;5.00;5.00;;;;;8.61;80.34;99360.44;5096986;27;45527;-47
2022/11/23 07:06:51;;;;;;;;;7.00;4.33;;;;;8.61;79.56;99349.00;5097298;27;45282;-50
2022/11/23 07:09:17;;;;;;;;;6.33;5.33;;;;;8.62;79.34;99342.72;5097439;27;45402;-54
2022/11/23 07:11:42;;;;;;;;;6.67;5.33;;;;;8.60;79.73;99353.47;5095581;27;46809;-50
2022/11/23 07:14:08;;;;;;;;;7.00;5.00;;;;;8.62;79.03;99353.31;5096937;27;45408;-50
2022/11/23 07:16:33;;;;;;;;;13.00;6.00;;;;;8.58;78.84;99347.50;5097220;27;45392;-50
2022/11/23 07:18:58;;;;;;;;;9.00;6.67;;;;;8.59;78.94;99351.81;5097418;27;45352;-51
2022/11/23 07:21:24;;;;;;;;;5.00;5.00;;;;;8.56;78.73;99349.50;5096800;27;46245;-51
2022/11/23 07:23:49;;;;;;;;;8.00;5.33;;;;;8.58;78.89;99351.97;5096306;27;45400;-50
2022/11/23 07:26:14;;;;;;;;;5.67;5.00;;;;;8.60;78.71;99355.31;5097080;27;45440;-51
2022/11/23 07:28:40;;;;;;;;;6.33;6.33;;;;;8.66;78.77;99362.59;5097039;27;45591;-49
2022/11/23 07:31:05;;;;;;;;;6.67;5.00;;;;;8.67;78.13;99348.31;5098086;27;45421;-52
2022/11/23 07:33:31;;;;;;;;;5.67;5.00;;;;;8.67;78.70;99357.09;5100254;27;45495;-49
2022/11/23 07:36:01;;;;;;;;;5.67;5.33;;;;;8.68;77.99;99373.81;5100620;27;45317;-51
2022/11/23 07:38:26;;;;;;;;;6.67;4.33;;;;;8.65;78.40;99360.94;5100508;27;45314;-51
2022/11/23 07:40:51;;;;;;;;;5.00;4.00;;;;;8.63;77.87;99369.03;5100039;27;46054;-50
2022/11/23 07:43:17;;;;;;;;;4.33;3.00;;;;;8.58;78.02;99350.16;5100326;27;45400;-50
2022/11/23 07:45:42;;;;;;;;;2.00;2.00;;;;;8.63;77.33;99369.03;5100128;27;45336;-50
2022/11/23 07:48:09;;;;;;;;;9.00;6.00;;;;;8.62;77.41;99370.03;5100559;27;45409;-52
2022/11/23 07:50:36;;;;;;;;;6.33;6.00;;;;;8.62;77.53;99367.38;5100053;27;45371;-52
2022/11/23 07:53:03;;;;;;;;;7.67;7.00;;;;;8.63;77.80;99362.91;5099593;27;45406;-53
2022/11/23 07:55:29;;;;;;;;;12.33;8.33;;;;;8.63;77.75;99361.09;5099996;27;45177;-51
2022/11/23 07:57:55;;;;;;;;;10.00;6.00;;;;;8.58;77.80;99352.81;5100212;27;45297;-52
2022/11/23 08:00:21;;;;;;;;;11.33;8.67;;;;;8.57;78.61;99366.25;5099876;27;45984;-53
2022/11/23 08:02:47;;;;;;;;;12.00;8.00;;;;;8.54;77.92;99355.97;5099997;27;45405;-52
2022/11/23 08:05:13;;;;;;;;;8.00;6.67;;;;;8.54;78.01;99363.91;5100073;27;45283;-52
2022/11/23 08:07:38;;;;;;;;;8.00;5.33;;;;;8.53;78.19;99354.31;5099861;27;45339;-49
2022/11/23 08:10:04;;;;;;;;;9.00;6.00;;;;;8.53;78.26;99356.97;5099827;27;45321;-48
2022/11/23 08:12:30;;;;;;;;;10.33;5.33;;;;;8.49;79.02;99365.25;5099760;27;45406;-49
2022/11/23 08:14:55;;;;;;;;;6.00;6.00;;;;;8.46;78.65;99357.63;5099816;27;45286;-48
2022/11/23 08:17:20;;;;;;;;;8.00;6.00;;;;;8.52;79.28;99360.63;5100051;27;45430;-51
2022/11/23 08:19:46;;;;;;;;;4.33;4.00;;;;;8.49;79.43;99359.94;5099497;27;46352;-50
2022/11/23 08:22:11;;;;;;;;;6.00;4.33;;;;;8.48;80.08;99353.00;5099612;27;45331;-50
2022/11/23 08:24:37;;;;;;;;;9.00;5.00;;;;;8.45;79.15;99339.25;5099971;27;45217;-53
2022/11/23 08:27:02;;;;;;;;;9.00;5.00;;;;;8.47;79.88;99350.53;5099839;27;45406;-52
2022/11/23 08:29:29;;;;;;;;;9.67;2.33;;;;;8.47;79.49;99350.53;5099487;27;45673;-52
2022/11/23 08:31:54;;;;;;;;;2.00;2.00;;;;;8.48;79.07;99334.44;5099488;27;45302;-52
2022/11/23 08:34:19;;;;;;;;;5.00;3.00;;;;;8.50;79.28;99323.66;5099516;27;45792;-49
2022/11/23 08:36:45;;;;;;;;;4.33;4.33;;;;;8.55;79.24;99333.75;5099805;27;45385;-49
2022/11/23 08:39:11;;;;;;;;;13.00;7.00;;;;;8.56;79.32;99325.66;5099146;27;45587;-51
2022/11/23 08:41:37;;;;;;;;;13.67;6.00;;;;;8.59;79.10;99316.53;5098946;27;45415;-49
2022/11/23 08:44:03;;;;;;;;;2.00;2.00;;;;;8.61;79.06;99320.69;5098368;27;45315;-51
2022/11/23 08:46:29;;;;;;;;;7.00;5.00;;;;;8.62;79.25;99302.94;5099262;27;45277;-53
2022/11/23 08:48:54;;;;;;;;;6.33;4.00;;;;;8.70;78.73;99297.63;5099185;27;46079;-53
2022/11/23 08:51:21;;;;;;;;;2.00;2.00;;;;;8.70;77.97;99292.31;5099003;27;45318;-51
2022/11/23 08:53:48;;;;;;;;;2.67;2.67;;;;;8.57;78.35;99261.03;5099193;27;45315;-51
2022/11/23 08:56:13;;;;;;;;;1.00;1.00;;;;;8.69;78.91;99266.81;5099263;27;45322;-53
2022/11/23 08:58:39;;;;;;;;;3.33;1.67;;;;;8.70;78.53;99261.34;5098910;27;46283;-48
2022/11/23 09:01:09;;;;;;;;;3.00;3.00;;;;;8.66;78.81;99277.75;5099049;27;45835;-51
2022/11/23 09:03:34;;;;;;;;;2.00;2.00;;;;;8.69;78.68;99298.63;5099000;27;45384;-53
2022/11/23 09:06:00;;;;;;;;;4.67;4.00;;;;;8.74;79.32;99286.50;5099015;27;45272;-51
2022/11/23 09:08:26;;;;;;;;;6.00;2.33;;;;;8.79;78.51;99282.50;5098691;27;47459;-51
2022/11/23 09:10:51;;;;;;;;;4.00;2.00;;;;;8.80;78.91;99281.50;5097320;27;45476;-53
2022/11/23 09:13:16;;;;;;;;;5.33;3.00;;;;;8.84;78.29;99270.38;5098622;27;45357;-51
2022/11/23 09:15:42;;;;;;;;;2.00;1.33;;;;;8.85;78.48;99258.81;5098988;27;45340;-53
2022/11/23 09:18:08;;;;;;;;;5.33;2.00;;;;;8.91;78.89;99266.06;5098449;27;45506;-53
2022/11/23 09:20:33;;;;;;;;;2.00;2.00;;;;;8.92;78.41;99261.56;5098233;27;45286;-51
2022/11/23 09:22:59;;;;;;;;;5.00;4.00;;;;;8.92;78.33;99265.06;5078025;27;45401;-54
2022/11/23 09:25:24;;;;;;;;;1.67;1.67;;;;;8.86;78.87;99243.72;5081845;27;45303;-53
2022/11/23 09:27:57;;;;;;;;;4.00;4.00;;;;;8.96;79.27;99254.94;5098167;27;45387;-54
2022/11/23 09:30:22;;;;;;;;;4.00;2.00;;;;;8.98;79.08;99255.59;5098480;27;45558;-55
2022/11/23 09:32:48;;;;;;;;;1.67;1.67;;;;;8.92;79.43;99248.31;5098550;27;45483;-55
2022/11/23 09:35:13;;;;;;;;;5.00;2.67;;;;;8.93;79.37;99247.31;5098731;27;45420;-56
2022/11/23 09:37:39;;;;;;;;;1.00;1.00;;;;;8.99;80.13;99249.28;5098287;27;45664;-53
2022/11/23 09:40:04;;;;;;;;;3.00;2.00;;;;;8.89;79.78;99241.56;5098325;27;45277;-55
2022/11/23 09:42:41;;;;;;;;;2.00;2.00;;;;;8.99;79.89;99246.63;5098044;27;45402;-53
2022/11/23 09:45:07;;;;;;;;;9.33;6.00;;;;;8.99;80.74;99244.81;5098099;27;45413;-54
2022/11/23 09:47:36;;;;;;;;;4.67;4.00;;;;;9.00;80.57;99253.59;5098208;27;45224;-55
2022/11/23 09:50:10;;;;;;;;;6.00;3.00;;;;;9.00;79.98;99242.97;5097950;27;45395;-55
2022/11/23 09:52:42;;;;;;;;;10.67;6.00;;;;;8.97;79.98;99241.53;5097970;27;45346;-54
2022/11/23 09:55:36;;;;;;;;;5.00;5.00;;;;;9.00;81.88;99232.38;5097849;27;45479;-53
2022/11/23 09:58:05;;;;;;;;;3.00;2.67;;;;;8.88;81.91;99225.78;5097767;27;46185;-54
2022/11/23 10:00:42;;;;;;;;;8.33;5.67;;;;;8.92;80.49;99227.09;5097750;27;45317;-55
2022/11/23 10:03:17;;;;;;;;;6.67;4.00;;;;;8.99;81.58;99226.25;5097822;27;45411;-57
2022/11/23 10:05:56;;;;;;;;;9.33;6.67;;;;;8.98;82.01;99227.25;5097858;27;45527;-50
2022/11/23 10:08:49;;;;;;;;;3.00;1.67;;;;;8.95;82.15;99232.06;5097404;27;45475;-51
2022/11/23 10:11:30;;;;;;;;;8.33;3.67;;;;;8.97;82.31;99228.25;5097256;27;45256;-50
2022/11/23 10:14:38;;;;;;;;;5.33;5.33;;;;;8.97;82.79;99230.06;5097679;27;45447;-51
2022/11/23 10:17:09;;;;;;;;;5.00;5.00;;;;;8.96;82.32;99217.81;5014768;28;45282;-52
2022/11/23 10:19:59;;;;;;;;;5.67;5.00;;;;;8.96;82.65;99213.31;5014512;28;46348;-49
2022/11/23 10:23:01;;;;;;;;;2.67;2.67;;;;;8.93;83.26;99232.25;5014319;28;45448;-51
2022/11/23 10:25:49;;;;;;;;;6.00;6.00;;;;;8.91;82.30;99254.63;4975234;28;45501;-54
2022/11/23 10:28:18;;;;;;;;;8.33;6.00;;;;;8.93;83.17;99258.78;4975555;28;45276;-54
2022/11/23 10:31:06;;;;;;;;;11.00;5.33;;;;;8.92;83.82;99254.44;4958816;28;45441;-54
2022/11/23 10:33:44;;;;;;;;;11.67;7.67;;;;;8.89;84.84;99241.56;4974900;28;45402;-50
2022/11/23 10:36:12;;;;;;;;;10.00;10.00;;;;;8.87;85.15;99262.09;4975118;28;45423;-51
2022/11/23 10:38:38;;;;;;;;;3.00;3.00;;;;;8.90;83.08;99260.94;4975271;28;45647;-54
2022/11/23 10:41:12;;;;;;;;;5.00;5.00;;;;;8.87;83.17;99259.44;4974850;28;46108;-50
2022/11/23 10:44:17;;;;;;;;;8.00;3.00;;;;;8.87;84.53;99261.28;4975071;28;45372;-54
2022/11/23 10:46:43;;;;;;;;;2.33;2.00;;;;;8.83;84.27;99263.44;4974535;28;45504;-59
2022/11/23 10:49:20;;;;;;;;;5.33;5.00;;;;;8.83;84.33;99260.78;4975110;28;45612;-53
2022/11/23 10:51:56;;;;;;;;;2.67;1.33;;;;;8.87;84.83;99267.41;4975447;28;46321;-49
2022/11/23 10:54:22;;;;;;;;;5.00;4.00;;;;;8.90;85.12;99276.84;5007322;28;45416;-51
2022/11/23 10:56:49;;;;;;;;;7.67;5.00;;;;;8.91;85.29;99279.31;5014773;28;45393;-53
2022/11/23 10:59:41;;;;;;;;;6.67;5.00;;;;;8.95;83.27;99274.50;5014763;28;45288;-51
2022/11/23 11:02:17;;;;;;;;;9.00;5.00;;;;;8.99;85.13;99283.78;5049673;27;45432;-48
2022/11/23 11:04:44;;;;;;;;;8.33;5.00;;;;;9.01;84.69;99284.41;5096951;27;45350;-49
2022/11/23 11:07:19;;;;;;;;;4.33;4.00;;;;;9.00;85.05;99280.94;5100096;27;45366;-46
2022/11/23 11:09:55;;;;;;;;;9.67;8.00;;;;;9.06;85.88;99276.78;5100755;27;45230;-52
2022/11/23 11:12:21;;;;;;;;;6.33;5.67;;;;;9.13;85.43;99283.03;5100468;27;45973;-49
2022/11/23 11:15:02;;;;;;;;;5.00;5.00;;;;;9.20;85.18;99272.56;5100378;27;45221;-50
2022/11/23 11:17:34;;;;;;;;;5.00;3.67;;;;;9.25;84.97;99289.59;5100816;27;45294;-53
2022/11/23 11:20:20;;;;;;;;;5.00;2.33;;;;;9.30;85.51;99280.31;5100706;27;45355;-53
2022/11/23 11:22:45;;;;;;;;;6.67;2.00;;;;;9.33;84.84;99277.31;5100292;27;45370;-53
2022/11/23 11:25:27;;;;;;;;;6.00;2.00;;;;;9.38;84.89;99281.06;5100234;27;45353;-51
2022/11/23 11:27:53;;;;;;;;;2.67;2.67;;;;;9.43;84.84;99297.31;5100521;27;45161;-50
2022/11/23 11:30:24;;;;;;;;;6.00;4.33;;;;;9.49;85.88;99299.28;5100702;27;45592;-52
2022/11/23 11:33:10;;;;;;;;;2.00;2.00;;;;;9.55;85.03;99294.25;5100142;27;46453;-51
2022/11/23 11:35:41;;;;;;;;;9.33;6.00;;;;;9.60;85.77;99305.16;5100057;27;45321;-49
2022/11/23 11:38:21;;;;;;;;;0.00;0.00;;;;;9.66;85.67;99305.31;5100056;27;45304;-50
2022/11/23 11:40:49;;;;;;;;;9.00;6.00;;;;;9.65;85.68;99302.81;5100146;27;45361;-53
2022/11/23 11:43:28;;;;;;;;;5.67;5.67;;;;;9.79;85.59;99314.53;5100143;27;46293;-51